Alt de Montebrisas, Puerto Rico
Current Conditions -  °F | °C
As of 9:56 AM on Wednesday 22 Oct 2014 (Local Time) from TJSJ Reporting Station
Scattered Clouds Scattered Clouds  
Wind Chill: 31°   Ceiling: Unl
Heat Index: 36°   Visibility: 10mi
Dew Point: 24°   Wind: 12mph
Humidity: 67%   Direction: 80°E
Pressure: 29.99"   Gusts: NA
Location:  18.2551°N, 65.9776°W
Report Text: TJSJ 221356Z 08010KT 10SM FEW030 SCT070 31/24 A2999 RMK AO2 SLP153 T03060239
Loading
Personal Weather Stations






























Interactive Weather Map
Tropical Storm Tracking
New forecast layout! Learn more

10-Day Weather Forecast

Advertisements
Track Severe Weather on mobile